Time;durP1;ratioP1;P1;durP2;ratioP2;P2;SDS_P1;SDS_P2;PMS_P1;PMS_P2;Temp;Humidity;BMP_temperature;BMP_pressure;BME280_temperature;BME280_humidity;BME280_pressure;Samples;Min_cycle;Max_cycle;Signal;HPM_P1;HPM_P2
2023/03/19 00:01:53;;;;;;;11.23;5.63;;;4.50;99.90;;;;;;4996023;28;20236;-83
2023/03/19 00:04:19;;;;;;;11.57;5.63;;;4.50;99.90;;;;;;4995933;28;20181;-84
2023/03/19 00:06:45;;;;;;;11.30;5.37;;;4.50;99.90;;;;;;4996108;28;20205;-83
2023/03/19 00:09:11;;;;;;;7.37;5.00;;;4.40;99.90;;;;;;4994734;28;20186;-83
2023/03/19 00:11:37;;;;;;;8.10;5.37;;;4.40;99.90;;;;;;4994506;28;20193;-83
2023/03/19 00:14:02;;;;;;;15.47;5.27;;;4.40;99.90;;;;;;4994484;28;20276;-83
2023/03/19 00:16:28;;;;;;;11.77;4.43;;;4.40;99.90;;;;;;4993926;28;20497;-83
2023/03/19 00:18:54;;;;;;;12.50;4.57;;;4.30;99.90;;;;;;4995768;28;20320;-83
2023/03/19 00:21:20;;;;;;;8.17;4.90;;;4.30;99.90;;;;;;4978175;28;20186;-83
2023/03/19 00:23:46;;;;;;;9.83;5.03;;;4.30;99.90;;;;;;4994529;28;20213;-83
2023/03/19 00:26:12;;;;;;;9.27;4.67;;;4.20;99.90;;;;;;4995655;28;20222;-83
2023/03/19 00:28:38;;;;;;;8.83;5.43;;;4.20;99.90;;;;;;4994339;28;20210;-83
2023/03/19 00:31:11;;;;;;;9.13;3.90;;;4.20;99.90;;;;;;4996205;28;20200;-83
2023/03/19 00:33:37;;;;;;;8.37;4.07;;;4.20;99.90;;;;;;4995078;28;20577;-83
2023/03/19 00:36:04;;;;;;;8.67;4.67;;;4.20;99.90;;;;;;4994041;28;20186;-84
2023/03/19 00:38:30;;;;;;;6.53;3.40;;;4.20;99.90;;;;;;4977867;28;20653;-83
2023/03/19 00:40:56;;;;;;;7.57;4.60;;;4.10;99.90;;;;;;4977963;28;20237;-84
2023/03/19 00:43:22;;;;;;;5.80;4.13;;;4.10;99.90;;;;;;4994112;28;20182;-83
2023/03/19 00:45:48;;;;;;;5.77;3.77;;;4.10;99.90;;;;;;4993838;28;20206;-84
2023/03/19 00:48:13;;;;;;;6.83;4.47;;;4.10;99.90;;;;;;4993381;28;20244;-84
2023/03/19 00:50:39;;;;;;;10.03;5.00;;;4.10;99.90;;;;;;4994880;28;20181;-83
2023/03/19 00:53:05;;;;;;;9.07;4.90;;;4.10;99.90;;;;;;4994152;28;20197;-83
2023/03/19 00:55:30;;;;;;;12.50;5.23;;;4.10;99.90;;;;;;4994855;28;20181;-84
2023/03/19 00:57:56;;;;;;;8.70;4.97;;;4.00;99.90;;;;;;4977659;28;20194;-83
2023/03/19 01:00:22;;;;;;;10.40;4.53;;;4.00;99.90;;;;;;4977352;28;20530;-83
2023/03/19 01:02:48;;;;;;;10.00;4.93;;;4.00;99.90;;;;;;4993070;28;20585;-83
2023/03/19 01:05:14;;;;;;;7.43;4.10;;;4.00;99.90;;;;;;4993408;28;20185;-83
2023/03/19 01:07:40;;;;;;;9.93;6.33;;;4.00;99.90;;;;;;4993150;28;20216;-84
2023/03/19 01:10:06;;;;;;;9.27;4.53;;;3.90;99.90;;;;;;4994653;28;20578;-83
2023/03/19 01:12:32;;;;;;;13.90;5.97;;;3.90;99.90;;;;;;4993339;28;20209;-84
2023/03/19 01:14:58;;;;;;;13.60;5.67;;;3.90;99.90;;;;;;4993405;28;20238;-83
2023/03/19 01:17:24;;;;;;;13.17;5.23;;;3.90;99.90;;;;;;4992974;28;20406;-83
2023/03/19 01:19:50;;;;;;;18.83;6.97;;;3.80;99.90;;;;;;4994299;28;20544;-84
2023/03/19 01:22:16;;;;;;;10.87;5.90;;;3.80;99.90;;;;;;4994314;28;20181;-84
2023/03/19 01:24:42;;;;;;;10.47;5.27;;;3.70;99.90;;;;;;4976998;28;20577;-83
2023/03/19 01:27:08;;;;;;;12.67;5.97;;;3.70;99.90;;;;;;4976933;28;20353;-83
2023/03/19 01:29:35;;;;;;;23.40;5.57;;;3.70;99.90;;;;;;4976819;28;20197;-84
2023/03/19 01:32:00;;;;;;;7.70;5.43;;;3.70;99.90;;;;;;4992992;28;20185;-83
2023/03/19 01:34:26;;;;;;;16.07;5.93;;;3.70;99.90;;;;;;4994354;28;20186;-83
2023/03/19 01:36:52;;;;;;;13.97;6.23;;;3.70;99.90;;;;;;4994359;28;20178;-83
2023/03/19 01:39:18;;;;;;;17.60;7.27;;;3.60;99.90;;;;;;4993170;28;20198;-83
2023/03/19 01:41:44;;;;;;;21.00;7.47;;;3.60;99.90;;;;;;4993175;28;20217;-84
2023/03/19 01:44:34;;;;;;;24.10;9.73;;;3.50;99.90;;;;;;4976754;28;20189;-83
2023/03/19 01:47:06;;;;;;;22.63;9.00;;;3.40;99.90;;;;;;4994203;28;20205;-83
2023/03/19 01:49:32;;;;;;;22.17;9.43;;;3.40;99.90;;;;;;4994066;28;20291;-88
2023/03/19 01:52:00;;;;;;;28.80;9.87;;;3.30;99.90;;;;;;4976773;28;20240;-83
2023/03/19 01:54:29;;;;;;;24.17;9.87;;;3.30;99.90;;;;;;4993765;28;20569;-83
2023/03/19 01:57:01;;;;;;;22.20;9.40;;;3.30;99.90;;;;;;4992730;28;20181;-83
2023/03/19 01:59:35;;;;;;;24.93;9.23;;;3.20;99.90;;;;;;4992991;28;20634;-83
2023/03/19 02:02:16;;;;;;;19.63;8.40;;;3.20;99.90;;;;;;4993932;28;20162;-83
2023/03/19 02:04:46;;;;;;;31.47;10.13;;;3.20;99.90;;;;;;4992668;28;20200;-83
2023/03/19 02:07:13;;;;;;;29.30;10.60;;;3.10;99.90;;;;;;4995109;28;20193;-84
2023/03/19 02:09:40;;;;;;;21.27;8.83;;;3.10;99.90;;;;;;4995475;28;20181;-84
2023/03/19 02:12:06;;;;;;;20.13;10.47;;;3.00;99.90;;;;;;4994700;28;20214;-84
2023/03/19 02:14:32;;;;;;;23.77;8.73;;;3.00;99.90;;;;;;5014891;28;20225;-84
2023/03/19 02:16:58;;;;;;;29.20;8.70;;;2.90;99.90;;;;;;5020621;28;20162;-82
2023/03/19 02:19:42;;;;;;;17.73;7.40;;;2.90;99.90;;;;;;5020511;28;20197;-82
2023/03/19 02:22:10;;;;;;;25.73;8.73;;;2.90;99.90;;;;;;5019243;28;20172;-84
2023/03/19 02:24:49;;;;;;;26.17;9.47;;;2.90;99.90;;;;;;4998308;28;20182;-85
2023/03/19 02:27:14;;;;;;;17.40;7.17;;;2.80;99.90;;;;;;5002800;28;20189;-82
2023/03/19 02:29:40;;;;;;;20.60;8.30;;;2.80;99.90;;;;;;5021402;28;20172;-87
2023/03/19 02:32:06;;;;;;;19.43;8.10;;;2.70;99.90;;;;;;4988806;28;20248;-84
2023/03/19 02:34:35;;;;;;;22.37;7.50;;;2.70;99.90;;;;;;5021443;28;20252;-84
2023/03/19 02:37:08;;;;;;;19.40;7.73;;;2.60;99.90;;;;;;4997663;28;20239;-84
2023/03/19 02:39:55;;;;;;;14.90;6.90;;;2.60;99.90;;;;;;4997662;28;20170;-83
2023/03/19 02:42:23;;;;;;;16.13;7.97;;;2.60;99.90;;;;;;4998036;28;20174;-84
2023/03/19 02:44:49;;;;;;;16.00;7.53;;;2.60;99.90;;;;;;4996508;28;20181;-84
2023/03/19 02:47:15;;;;;;;14.33;6.23;;;2.50;99.90;;;;;;4998196;28;20212;-84
2023/03/19 02:49:41;;;;;;;17.60;6.97;;;2.50;99.90;;;;;;4999154;28;20183;-84
2023/03/19 02:52:07;;;;;;;11.57;7.67;;;2.40;99.90;;;;;;4997400;28;20216;-84
2023/03/19 02:54:33;;;;;;;14.23;6.87;;;2.40;99.90;;;;;;4998511;28;20293;-84
2023/03/19 02:56:59;;;;;;;13.17;7.70;;;2.40;99.90;;;;;;4997179;28;20212;-84
2023/03/19 02:59:25;;;;;;;18.70;8.87;;;2.40;99.90;;;;;;4963784;28;20179;-84
2023/03/19 03:01:51;;;;;;;24.07;11.60;;;2.40;99.90;;;;;;4996979;28;20687;-84
2023/03/19 03:04:16;;;;;;;29.60;12.33;;;2.30;99.90;;;;;;4995974;28;20185;-83
2023/03/19 03:06:43;;;;;;;24.80;9.97;;;2.30;99.90;;;;;;4995704;28;20186;-85
2023/03/19 03:09:11;;;;;;;37.63;14.20;;;2.30;99.90;;;;;;4995944;28;20261;-84
2023/03/19 03:11:37;;;;;;;35.67;13.63;;;2.30;99.90;;;;;;4997992;28;20196;-84
2023/03/19 03:14:03;;;;;;;32.70;13.97;;;2.20;99.90;;;;;;4964149;28;20243;-84
2023/03/19 03:16:29;;;;;;;26.27;12.17;;;2.20;99.90;;;;;;4996103;28;20615;-84
2023/03/19 03:18:55;;;;;;;39.73;19.50;;;2.20;99.90;;;;;;4979282;28;20229;-86
2023/03/19 03:21:21;;;;;;;37.07;16.10;;;2.20;99.90;;;;;;4979772;28;20212;-84
2023/03/19 03:23:47;;;;;;;39.67;13.77;;;2.20;99.90;;;;;;4995446;28;20218;-84
2023/03/19 03:26:13;;;;;;;36.33;14.20;;;2.20;99.90;;;;;;4996486;28;20181;-84
2023/03/19 03:28:39;;;;;;;32.93;11.43;;;2.10;99.90;;;;;;4995470;28;20669;-84
2023/03/19 03:31:05;;;;;;;25.07;10.30;;;2.10;99.90;;;;;;4995296;28;20194;-84
2023/03/19 03:33:31;;;;;;;21.07;10.60;;;2.00;99.90;;;;;;4996386;28;20528;-84
2023/03/19 03:35:57;;;;;;;19.37;7.43;;;2.00;99.90;;;;;;4979324;28;20238;-84
2023/03/19 03:38:23;;;;;;;13.87;7.13;;;1.90;99.90;;;;;;4995573;28;20194;-83
2023/03/19 03:40:51;;;;;;;24.17;9.10;;;1.90;99.90;;;;;;4996215;28;20577;-84
2023/03/19 03:43:18;;;;;;;14.50;7.73;;;1.90;99.90;;;;;;4996587;28;20193;-83
2023/03/19 03:45:44;;;;;;;14.13;7.13;;;1.80;99.90;;;;;;4963440;28;20192;-83
2023/03/19 03:48:10;;;;;;;15.00;6.27;;;1.80;99.90;;;;;;4994893;28;20740;-82
2023/03/19 03:50:36;;;;;;;11.27;5.90;;;1.80;99.90;;;;;;4996314;28;20187;-83
2023/03/19 03:53:02;;;;;;;9.00;5.87;;;1.80;99.90;;;;;;4996028;28;20178;-84
2023/03/19 03:55:27;;;;;;;11.67;5.73;;;1.70;99.90;;;;;;4978828;28;20182;-84
2023/03/19 03:57:53;;;;;;;20.90;5.73;;;1.70;99.90;;;;;;4994807;28;20197;-84
2023/03/19 04:00:19;;;;;;;15.40;5.83;;;1.70;99.90;;;;;;4995969;28;20681;-85
2023/03/19 04:02:45;;;;;;;12.67;5.27;;;1.70;99.90;;;;;;4996086;28;20696;-85
2023/03/19 04:05:10;;;;;;;11.97;7.27;;;1.70;99.90;;;;;;4978332;28;20185;-83
2023/03/19 04:07:37;;;;;;;16.77;5.83;;;1.70;99.90;;;;;;4994742;28;20205;-84
2023/03/19 04:10:04;;;;;;;11.50;6.10;;;1.70;99.90;;;;;;4978608;28;20619;-84
2023/03/19 04:12:31;;;;;;;9.23;4.83;;;1.70;99.90;;;;;;4995648;28;20180;-84
2023/03/19 04:14:56;;;;;;;14.83;5.57;;;1.70;99.90;;;;;;4994355;28;20186;-84
2023/03/19 04:17:22;;;;;;;16.83;7.07;;;1.70;99.90;;;;;;4995970;28;20717;-84
2023/03/19 04:19:48;;;;;;;17.20;6.47;;;1.70;99.90;;;;;;4994409;28;20193;-84
2023/03/19 04:22:15;;;;;;;12.87;6.00;;;1.70;99.90;;;;;;4994164;28;20178;-84
2023/03/19 04:24:40;;;;;;;17.67;6.97;;;1.70;99.90;;;;;;4978109;28;20191;-83
2023/03/19 04:27:07;;;;;;;15.90;5.77;;;1.80;99.90;;;;;;4994096;28;20189;-84
2023/03/19 04:29:33;;;;;;;19.67;7.60;;;1.80;99.90;;;;;;4978168;28;20721;-84
2023/03/19 04:31:58;;;;;;;12.73;7.27;;;1.80;99.90;;;;;;4994046;28;20278;-84
2023/03/19 04:34:24;;;;;;;15.37;9.17;;;1.90;99.90;;;;;;4994264;28;20534;-84
2023/03/19 04:36:50;;;;;;;21.13;8.80;;;1.90;99.90;;;;;;4977974;28;20631;-84
2023/03/19 04:39:17;;;;;;;24.07;9.57;;;1.90;99.90;;;;;;4993316;28;20185;-84
2023/03/19 04:41:42;;;;;;;22.40;9.03;;;1.90;99.90;;;;;;4995410;28;20250;-84
2023/03/19 04:44:08;;;;;;;12.57;7.10;;;2.00;99.90;;;;;;4993829;28;20572;-84
2023/03/19 04:46:34;;;;;;;16.37;7.53;;;2.00;99.90;;;;;;4994210;28;20187;-84
2023/03/19 04:49:00;;;;;;;21.43;9.67;;;2.00;99.90;;;;;;4994802;28;20680;-84
2023/03/19 04:51:26;;;;;;;16.23;9.10;;;1.90;99.90;;;;;;4993488;28;20248;-83
2023/03/19 04:53:51;;;;;;;18.43;9.93;;;2.00;99.90;;;;;;4995010;28;20233;-83
2023/03/19 04:56:17;;;;;;;18.10;11.37;;;2.00;99.90;;;;;;4993509;28;20607;-83
2023/03/19 04:58:43;;;;;;;30.43;9.17;;;1.90;99.90;;;;;;4993595;28;20193;-83
2023/03/19 05:01:09;;;;;;;16.80;9.87;;;2.00;99.90;;;;;;4993434;28;20209;-83
2023/03/19 05:03:35;;;;;;;29.50;11.30;;;2.10;99.90;;;;;;4994881;28;20182;-84
2023/03/19 05:06:01;;;;;;;22.33;10.67;;;2.10;99.90;;;;;;4994638;28;20542;-84
2023/03/19 05:08:26;;;;;;;19.43;11.87;;;2.10;99.90;;;;;;4993384;28;20277;-84
2023/03/19 05:10:52;;;;;;;26.33;11.87;;;2.20;99.90;;;;;;4961264;28;20709;-83
2023/03/19 05:13:17;;;;;;;28.23;12.77;;;2.20;99.90;;;;;;4977034;28;20273;-83
2023/03/19 05:15:44;;;;;;;24.90;8.83;;;2.30;99.90;;;;;;4993560;28;20186;-83
2023/03/19 05:18:11;;;;;;;24.40;9.57;;;2.30;99.90;;;;;;4994161;28;20322;-84
2023/03/19 05:20:38;;;;;;;15.83;9.63;;;2.40;99.90;;;;;;4994242;28;20665;-83
2023/03/19 05:23:05;;;;;;;23.50;8.87;;;2.50;99.90;;;;;;4993113;28;20188;-84
2023/03/19 05:25:34;;;;;;;12.10;5.83;;;2.60;99.90;;;;;;4977343;28;20638;-84
2023/03/19 05:27:59;;;;;;;14.57;7.10;;;2.70;99.90;;;;;;4994270;28;20234;-87
2023/03/19 05:30:26;;;;;;;11.63;5.57;;;2.80;99.90;;;;;;4993020;28;20283;-84
2023/03/19 05:32:52;;;;;;;14.17;5.63;;;2.90;99.90;;;;;;4993349;28;20207;-84
2023/03/19 05:35:18;;;;;;;12.27;6.63;;;3.00;99.90;;;;;;4992969;28;20644;-84
2023/03/19 05:37:44;;;;;;;9.07;6.13;;;3.10;99.90;;;;;;4994313;28;20188;-84
2023/03/19 05:40:11;;;;;;;14.70;7.63;;;3.20;99.90;;;;;;4992388;28;20194;-84
2023/03/19 05:42:37;;;;;;;12.40;5.97;;;3.40;99.90;;;;;;4993153;28;20182;-84
2023/03/19 05:45:04;;;;;;;10.83;5.67;;;3.60;99.90;;;;;;4992752;28;20276;-84
2023/03/19 05:47:30;;;;;;;10.10;5.17;;;3.70;99.90;;;;;;4961058;28;20611;-84
2023/03/19 05:49:55;;;;;;;11.70;5.87;;;3.90;99.90;;;;;;4992791;28;20244;-84
2023/03/19 05:52:21;;;;;;;10.87;4.87;;;4.10;99.90;;;;;;4993147;28;20271;-84
2023/03/19 05:54:48;;;;;;;8.87;4.70;;;4.30;99.90;;;;;;4992321;28;20189;-84
2023/03/19 05:57:15;;;;;;;12.60;6.20;;;4.40;99.90;;;;;;4990153;28;20557;-85
2023/03/19 05:59:41;;;;;;;8.73;4.93;;;4.50;99.90;;;;;;4975449;28;20277;-85
2023/03/19 06:02:07;;;;;;;9.27;4.90;;;4.60;99.90;;;;;;4991728;28;20197;-85
2023/03/19 06:04:32;;;;;;;10.80;5.17;;;4.80;99.90;;;;;;4992073;28;20282;-84
2023/03/19 06:06:58;;;;;;;9.63;4.83;;;4.90;99.90;;;;;;4992131;28;20217;-83
2023/03/19 06:09:24;;;;;;;8.97;4.00;;;5.10;99.90;;;;;;4991550;28;20224;-85
2023/03/19 06:11:49;;;;;;;8.77;4.83;;;5.20;99.90;;;;;;4992463;28;20643;-85
2023/03/19 06:14:15;;;;;;;10.50;3.90;;;5.20;99.90;;;;;;4990889;28;20185;-84
2023/03/19 06:16:41;;;;;;;7.37;4.13;;;5.40;99.90;;;;;;4974655;28;20659;-84
2023/03/19 06:19:07;;;;;;;7.67;3.70;;;5.50;99.90;;;;;;4974053;28;20710;-88
2023/03/19 06:21:33;;;;;;;11.37;4.73;;;5.60;99.90;;;;;;4990915;28;20182;-85
2023/03/19 06:24:00;;;;;;;6.13;3.93;;;5.70;99.90;;;;;;4991066;28;20252;-85
2023/03/19 06:26:26;;;;;;;6.70;3.77;;;5.70;99.90;;;;;;4974653;28;20190;-84
2023/03/19 06:28:52;;;;;;;11.27;4.63;;;5.80;99.90;;;;;;4991069;28;20293;-84
2023/03/19 06:31:17;;;;;;;4.70;3.00;;;6.00;99.90;;;;;;4974335;28;20277;-86
2023/03/19 06:33:43;;;;;;;5.83;3.20;;;6.10;99.90;;;;;;4974361;28;20200;-85
2023/03/19 06:36:09;;;;;;;11.63;3.80;;;6.10;99.90;;;;;;4990745;28;20178;-87
2023/03/19 06:38:35;;;;;;;8.47;4.40;;;6.10;99.90;;;;;;4975207;28;20225;-84
2023/03/19 06:41:01;;;;;;;12.33;4.30;;;6.10;99.90;;;;;;4990379;28;20178;-85
2023/03/19 06:43:27;;;;;;;7.77;4.03;;;6.00;99.90;;;;;;4974072;28;20602;-86
2023/03/19 06:45:53;;;;;;;6.90;3.53;;;6.00;99.90;;;;;;4991063;28;20193;-85
2023/03/19 06:48:18;;;;;;;6.63;4.13;;;5.90;99.90;;;;;;4990725;28;20587;-86
2023/03/19 06:50:45;;;;;;;10.67;4.37;;;5.80;99.90;;;;;;4991036;28;20194;-86
2023/03/19 06:53:12;;;;;;;7.23;4.63;;;5.90;99.90;;;;;;4991297;28;20217;-86
2023/03/19 06:55:38;;;;;;;7.40;3.70;;;6.00;99.90;;;;;;4992521;28;20218;-85
2023/03/19 06:58:05;;;;;;;8.33;4.47;;;6.10;99.90;;;;;;4992722;28;20186;-85
2023/03/19 07:00:31;;;;;;;6.00;3.70;;;6.30;99.90;;;;;;4992364;28;20643;-86
2023/03/19 07:02:57;;;;;;;9.60;3.97;;;6.20;99.90;;;;;;4994858;28;20654;-86
2023/03/19 07:05:23;;;;;;;11.20;3.43;;;6.30;99.90;;;;;;5013068;28;20337;-84
2023/03/19 07:07:49;;;;;;;10.40;5.33;;;6.40;99.90;;;;;;4995588;28;20583;-85
2023/03/19 07:10:18;;;;;;;6.70;3.70;;;6.60;99.90;;;;;;4980634;28;20194;-85
2023/03/19 07:12:43;;;;;;;7.93;4.80;;;6.80;99.90;;;;;;4997437;28;20200;-84
2023/03/19 07:15:09;;;;;;;10.30;4.37;;;7.00;99.90;;;;;;4996041;28;20635;-84
2023/03/19 07:17:35;;;;;;;10.33;5.13;;;7.30;99.90;;;;;;4973696;28;20296;-85
2023/03/19 07:20:01;;;;;;;10.57;4.70;;;7.60;99.90;;;;;;4977121;28;20596;-86
2023/03/19 07:22:26;;;;;;;6.23;3.93;;;7.80;99.90;;;;;;4977164;28;20281;-85
2023/03/19 07:24:52;;;;;;;12.10;4.50;;;7.90;99.90;;;;;;4993167;28;20746;-85
2023/03/19 07:27:18;;;;;;;7.93;4.90;;;8.00;99.90;;;;;;4992532;28;20683;-86
2023/03/19 07:29:43;;;;;;;8.43;4.03;;;7.80;99.90;;;;;;4977077;28;20301;-85
2023/03/19 07:32:10;;;;;;;9.87;4.33;;;7.80;99.90;;;;;;4993359;28;20182;-85
2023/03/19 07:34:36;;;;;;;5.13;3.67;;;7.70;99.90;;;;;;4977407;28;20190;-85
2023/03/19 07:37:01;;;;;;;13.47;4.67;;;7.60;99.90;;;;;;4976981;28;20655;-87
2023/03/19 07:39:27;;;;;;;6.87;4.00;;;7.80;99.90;;;;;;4993209;28;20198;-87
2023/03/19 07:41:53;;;;;;;9.17;4.13;;;7.70;99.90;;;;;;4973177;28;20201;-86
2023/03/19 07:44:18;;;;;;;9.00;4.20;;;7.60;99.90;;;;;;4992729;28;20240;-86
2023/03/19 07:46:44;;;;;;;9.50;4.13;;;7.70;99.90;;;;;;4993611;28;20189;-86
2023/03/19 07:49:10;;;;;;;9.00;3.70;;;7.60;99.90;;;;;;4994379;28;20268;-86
2023/03/19 07:51:36;;;;;;;7.43;3.37;;;7.80;99.90;;;;;;4989952;28;20599;-88
2023/03/19 07:54:02;;;;;;;14.67;6.43;;;7.90;99.90;;;;;;4992164;28;20178;-85
2023/03/19 07:56:27;;;;;;;7.33;4.63;;;8.00;99.90;;;;;;4976418;28;20205;-84
2023/03/19 07:58:53;;;;;;;13.07;5.23;;;8.20;99.90;;;;;;4993069;28;20692;-86
2023/03/19 08:01:19;;;;;;;11.97;5.37;;;8.40;99.90;;;;;;4993105;28;20190;-87
2023/03/19 08:03:47;;;;;;;7.23;4.23;;;8.50;99.90;;;;;;4995665;28;20185;-85
2023/03/19 08:06:12;;;;;;;14.80;5.00;;;8.70;99.90;;;;;;4994978;28;20197;-84
2023/03/19 08:08:40;;;;;;;11.03;4.03;;;8.70;98.80;;;;;;4995022;28;20293;-86
2023/03/19 08:11:06;;;;;;;7.47;3.80;;;8.80;98.00;;;;;;4995204;28;20231;-85
2023/03/19 08:13:32;;;;;;;9.83;4.43;;;8.80;97.00;;;;;;5009297;28;20178;-86
2023/03/19 08:15:58;;;;;;;9.33;4.43;;;8.90;95.70;;;;;;5018020;28;20204;-87
2023/03/19 08:18:23;;;;;;;9.23;3.97;;;8.80;95.40;;;;;;5015359;28;20210;-87
2023/03/19 08:20:49;;;;;;;9.10;4.27;;;8.80;95.40;;;;;;5009692;28;20195;-86
2023/03/19 08:23:15;;;;;;;6.13;3.30;;;8.80;94.80;;;;;;4993648;28;20667;-85
2023/03/19 08:25:41;;;;;;;7.47;3.73;;;8.80;94.00;;;;;;4994440;28;20194;-86
2023/03/19 08:28:08;;;;;;;13.23;4.47;;;8.90;94.30;;;;;;5015911;28;20261;-86
2023/03/19 08:30:35;;;;;;;6.63;3.63;;;8.90;94.10;;;;;;5015212;28;20259;-87
2023/03/19 08:33:01;;;;;;;8.83;4.60;;;9.00;94.10;;;;;;5016001;28;20188;-84
2023/03/19 08:35:27;;;;;;;7.33;4.87;;;9.00;93.40;;;;;;4997753;28;20213;-85
2023/03/19 08:37:53;;;;;;;6.13;3.97;;;9.00;93.60;;;;;;4993062;28;20297;-84
2023/03/19 08:40:19;;;;;;;7.27;4.23;;;9.10;93.70;;;;;;4994593;28;20201;-85
2023/03/19 08:42:45;;;;;;;6.63;3.70;;;9.20;93.20;;;;;;4976706;28;20216;-85
2023/03/19 08:45:13;;;;;;;9.60;4.70;;;9.30;92.50;;;;;;4994313;28;20186;-86
2023/03/19 08:47:39;;;;;;;8.97;4.33;;;9.30;92.70;;;;;;4993948;28;20276;-84
2023/03/19 08:50:06;;;;;;;8.07;4.00;;;9.50;91.40;;;;;;4997130;28;20236;-85
2023/03/19 08:52:32;;;;;;;7.95;3.95;;;9.50;90.10;;;;;;4992628;28;20602;-84
2023/03/19 08:54:58;;;;;;;8.77;3.78;;;9.70;90.00;;;;;;4979528;28;20201;-86
2023/03/19 08:57:24;;;;;;;7.80;4.40;;;9.70;90.40;;;;;;4993057;28;20190;-86
2023/03/19 08:59:51;;;;;;;8.13;4.17;;;9.80;90.10;;;;;;4992134;28;20194;-84
2023/03/19 09:02:17;;;;;;;11.80;5.00;;;9.90;88.70;;;;;;4992101;28;20249;-84
2023/03/19 09:04:43;;;;;;;10.07;4.23;;;10.10;86.50;;;;;;4983470;28;20281;-85
2023/03/19 09:07:14;;;;;;;6.60;4.80;;;10.30;84.90;;;;;;4990051;28;20208;-86
2023/03/19 09:09:43;;;;;;;6.15;4.13;;;10.30;87.30;;;;;;4993548;28;20221;-85
2023/03/19 09:12:12;;;;;;;6.28;4.28;;;10.40;83.90;;;;;;4994080;28;20190;-85
2023/03/19 09:14:38;;;;;;;11.67;5.57;;;10.60;85.20;;;;;;4992683;28;20200;-84
2023/03/19 09:17:04;;;;;;;16.45;7.05;;;10.70;82.10;;;;;;4994682;28;20192;-88
2023/03/19 09:19:30;;;;;;;6.72;3.53;;;10.70;79.10;;;;;;4993559;28;20189;-87
2023/03/19 09:21:56;;;;;;;6.95;3.78;;;10.90;75.80;;;;;;4967489;28;20708;-87
2023/03/19 09:24:23;;;;;;;11.25;4.60;;;11.00;71.30;;;;;;4964545;28;20186;-84
2023/03/19 09:26:49;;;;;;;8.10;4.13;;;11.00;72.70;;;;;;5004279;28;20635;-84
2023/03/19 09:29:15;;;;;;;9.70;4.72;;;11.10;73.60;;;;;;4982008;28;20222;-85
2023/03/19 09:31:41;;;;;;;9.65;4.68;;;11.10;73.30;;;;;;4992402;28;20240;-84
2023/03/19 09:34:08;;;;;;;8.27;4.28;;;11.20;73.30;;;;;;4993039;28;20267;-85
2023/03/19 09:36:35;;;;;;;8.63;4.22;;;11.30;73.50;;;;;;4993552;28;20194;-83
2023/03/19 09:39:01;;;;;;;11.45;4.40;;;11.40;72.50;;;;;;4991927;28;20220;-84
2023/03/19 09:41:30;;;;;;;10.23;4.68;;;11.60;72.50;;;;;;4992814;28;20279;-85
2023/03/19 09:44:07;;;;;;;6.43;4.05;;;11.60;71.10;;;;;;4992890;28;20177;-86
2023/03/19 09:46:42;;;;;;;9.52;4.90;;;11.70;69.80;;;;;;4992659;28;20504;-85
2023/03/19 09:49:32;;;;;;;7.10;4.40;;;11.70;67.70;;;;;;4992987;28;20205;-85
2023/03/19 09:52:27;;;;;;;11.02;5.00;;;11.80;69.10;;;;;;4993249;28;20190;-86
2023/03/19 09:54:57;;;;;;;8.90;4.53;;;12.10;69.40;;;;;;4991998;28;20185;-85
2023/03/19 09:57:23;;;;;;;8.05;5.25;;;12.20;67.00;;;;;;4993031;28;20534;-83
2023/03/19 09:59:48;;;;;;;7.68;4.28;;;12.40;69.80;;;;;;4991701;28;20197;-83
2023/03/19 10:02:20;;;;;;;9.65;4.68;;;12.60;65.80;;;;;;4975432;28;20185;-83
2023/03/19 10:05:17;;;;;;;9.77;4.90;;;12.70;65.70;;;;;;4991829;28;20182;-84
2023/03/19 10:08:04;;;;;;;12.55;5.13;;;12.80;64.60;;;;;;4991857;28;20280;-84
2023/03/19 10:10:44;;;;;;;16.05;4.90;;;13.10;64.70;;;;;;4992314;28;20189;-84
2023/03/19 10:13:14;;;;;;;8.73;4.45;;;13.30;64.90;;;;;;4993348;28;20277;-83
2023/03/19 10:15:43;;;;;;;12.88;4.78;;;13.20;61.30;;;;;;4991485;28;20177;-85
2023/03/19 10:18:26;;;;;;;15.27;4.82;;;13.20;61.00;;;;;;4982776;28;20237;-85
2023/03/19 10:20:59;;;;;;;9.60;4.78;;;13.30;62.60;;;;;;4974324;28;20178;-85
2023/03/19 10:23:58;;;;;;;9.70;4.70;;;13.20;61.90;;;;;;4974181;28;20612;-86
2023/03/19 10:26:36;;;;;;;8.88;4.43;;;13.10;60.60;;;;;;4967512;28;20184;-85
2023/03/19 10:29:12;;;;;;;8.23;4.93;;;13.00;59.70;;;;;;4965027;28;20213;-86
2023/03/19 10:31:51;;;;;;;14.90;4.93;;;13.20;63.50;;;;;;4961374;28;20197;-86
2023/03/19 10:34:34;;;;;;;14.55;4.95;;;13.50;62.70;;;;;;4964040;28;20182;-85
2023/03/19 10:37:04;;;;;;;13.88;5.30;;;14.00;64.80;;;;;;4975329;28;20189;-85
2023/03/19 10:39:38;;;;;;;10.75;5.85;;;14.30;64.00;;;;;;4959846;28;20194;-84
2023/03/19 10:42:13;;;;;;;11.57;5.63;;;14.50;67.20;;;;;;4964534;28;20354;-86
2023/03/19 10:45:03;;;;;;;8.05;4.28;;;14.70;64.90;;;;;;4959987;28;20197;-84
2023/03/19 10:47:38;;;;;;;12.70;5.63;;;14.90;63.20;;;;;;4977543;28;20305;-84
2023/03/19 10:50:05;;;;;;;7.90;4.88;;;15.20;61.30;;;;;;4960413;28;20245;-85
2023/03/19 10:52:34;;;;;;;8.80;5.22;;;14.80;60.60;;;;;;4943898;28;20278;-85
2023/03/19 10:55:22;;;;;;;10.90;5.55;;;14.60;60.30;;;;;;4977421;28;20249;-85
2023/03/19 10:57:50;;;;;;;10.40;5.25;;;14.60;63.40;;;;;;4977334;28;20193;-86
2023/03/19 11:00:19;;;;;;;10.52;5.15;;;14.50;61.60;;;;;;4960023;28;20194;-86
2023/03/19 11:02:51;;;;;;;10.80;5.55;;;14.40;62.20;;;;;;4959342;28;20179;-87
2023/03/19 11:05:20;;;;;;;10.70;5.28;;;14.40;64.50;;;;;;4960444;28;20194;-84
2023/03/19 11:08:15;;;;;;;9.27;5.43;;;14.60;64.10;;;;;;4977433;28;20202;-84
2023/03/19 11:10:48;;;;;;;16.40;6.22;;;14.80;64.40;;;;;;4952721;28;20205;-85
2023/03/19 11:13:25;;;;;;;12.88;5.55;;;15.10;61.90;;;;;;4983736;28;20182;-85
2023/03/19 11:15:54;;;;;;;13.30;5.25;;;15.20;61.00;;;;;;4973386;28;20190;-86
2023/03/19 11:18:23;;;;;;;10.68;4.82;;;15.30;60.60;;;;;;4989847;28;20748;-83
2023/03/19 11:21:04;;;;;;;13.52;6.30;;;15.40;60.20;;;;;;4989337;28;20185;-85
2023/03/19 11:23:36;;;;;;;13.30;5.20;;;15.50;60.60;;;;;;4980714;28;20195;-84
2023/03/19 11:26:02;;;;;;;9.55;5.45;;;15.50;59.60;;;;;;4990105;28;20193;-84
2023/03/19 11:28:32;;;;;;;11.07;5.97;;;15.60;59.80;;;;;;4988821;28;20226;-84
2023/03/19 11:31:07;;;;;;;9.05;5.43;;;15.70;58.10;;;;;;4959214;28;20194;-85
2023/03/19 11:33:44;;;;;;;12.05;5.80;;;15.70;57.50;;;;;;4958307;28;20232;-83
2023/03/19 11:36:36;;;;;;;9.73;5.00;;;15.40;56.90;;;;;;4958022;28;20182;-86
2023/03/19 11:39:18;;;;;;;10.85;6.13;;;15.20;57.90;;;;;;4957813;28;20193;-84
2023/03/19 11:41:52;;;;;;;16.90;6.03;;;15.10;59.40;;;;;;4958359;28;20182;-85
2023/03/19 11:44:39;;;;;;;13.05;5.60;;;15.00;60.00;;;;;;4975571;28;20189;-85
2023/03/19 11:47:10;;;;;;;13.52;5.93;;;15.00;59.70;;;;;;4974547;28;20174;-85
2023/03/19 11:49:56;;;;;;;9.15;5.05;;;14.90;61.10;;;;;;4958056;28;20186;-85
2023/03/19 11:52:48;;;;;;;9.40;4.97;;;14.80;57.90;;;;;;4958157;28;20245;-85
2023/03/19 11:55:13;;;;;;;12.60;5.45;;;14.70;59.60;;;;;;4975107;28;20181;-85
2023/03/19 11:57:58;;;;;;;13.50;6.35;;;14.70;59.40;;;;;;4957897;28;20194;-87
2023/03/19 12:00:35;;;;;;;11.70;5.25;;;14.60;59.10;;;;;;4958177;28;20179;-84
2023/03/19 12:03:22;;;;;;;13.80;5.97;;;14.70;59.10;;;;;;4968948;28;20281;-83
2023/03/19 12:06:02;;;;;;;9.95;5.40;;;14.90;59.00;;;;;;4943768;28;20362;-86
2023/03/19 12:08:30;;;;;;;15.40;6.43;;;15.10;58.70;;;;;;4974508;28;20218;-84
2023/03/19 12:11:20;;;;;;;12.90;5.13;;;15.20;58.00;;;;;;4957113;28;20189;-85
2023/03/19 12:14:26;;;;;;;8.68;4.85;;;15.40;57.20;;;;;;4957081;28;20549;-84
2023/03/19 12:17:12;;;;;;;19.23;10.30;;;15.30;56.00;;;;;;4974494;28;20623;-85
2023/03/19 12:19:55;;;;;;;11.50;6.03;;;15.40;56.00;;;;;;4964306;28;20201;-84
2023/03/19 12:22:26;;;;;;;30.48;13.80;;;15.50;56.40;;;;;;4996219;28;20721;-85
2023/03/19 12:25:29;;;;;;;12.40;5.28;;;15.80;55.60;;;;;;4984197;28;20182;-85
2023/03/19 12:28:17;;;;;;;9.15;5.05;;;15.70;54.30;;;;;;4991291;28;20209;-84
2023/03/19 12:31:11;;;;;;;10.15;4.95;;;16.00;55.30;;;;;;4986824;28;20589;-84
2023/03/19 12:34:03;;;;;;;9.18;4.72;;;16.10;54.90;;;;;;4975761;28;20197;-85
2023/03/19 12:36:32;;;;;;;6.00;3.83;;;16.30;54.00;;;;;;4975010;28;20182;-84
2023/03/19 12:39:22;;;;;;;13.20;5.63;;;16.30;53.10;;;;;;4992965;28;20201;-84
2023/03/19 12:41:50;;;;;;;15.48;5.82;;;16.40;52.70;;;;;;4991488;28;20181;-84
2023/03/19 12:44:24;;;;;;;20.52;7.32;;;16.30;54.80;;;;;;4993061;28;20265;-84
2023/03/19 12:47:01;;;;;;;8.77;3.67;;;16.50;55.60;;;;;;4974775;28;20182;-84
2023/03/19 12:49:35;;;;;;;9.73;4.78;;;16.50;52.00;;;;;;4975101;28;20296;-84
2023/03/19 12:52:34;;;;;;;8.30;4.53;;;16.70;50.30;;;;;;4979456;28;20194;-86
2023/03/19 12:55:19;;;;;;;15.43;6.10;;;16.90;52.10;;;;;;4958531;28;20646;-84
2023/03/19 12:58:02;;;;;;;12.38;5.50;;;16.90;55.50;;;;;;4992425;28;20186;-84
2023/03/19 13:00:39;;;;;;;14.35;5.90;;;16.90;54.10;;;;;;4983262;28;20197;-87